sensor_id;sensor_type;location;lat;lon;timestamp;P1;durP1;ratioP1;P2;durP2;ratioP2
50543;SDS011;41176;44.032;20.900;2022-08-01T00:00:13;2.88;;;1.70;;
50543;SDS011;41176;44.032;20.900;2022-08-01T00:02:39;3.17;;;1.70;;
50543;SDS011;41176;44.032;20.900;2022-08-01T00:05:06;4.30;;;1.65;;
50543;SDS011;41176;44.032;20.900;2022-08-01T00:07:35;2.75;;;1.90;;
50543;SDS011;41176;44.032;20.900;2022-08-01T00:10:06;2.85;;;1.77;;
50543;SDS011;41176;44.032;20.900;2022-08-01T00:12:34;4.28;;;1.55;;
50543;SDS011;41176;44.032;20.900;2022-08-01T00:15:00;4.80;;;1.73;;
50543;SDS011;41176;44.032;20.900;2022-08-01T00:17:27;3.63;;;1.77;;
50543;SDS011;41176;44.032;20.900;2022-08-01T00:19:52;3.50;;;1.50;;
50543;SDS011;41176;44.032;20.900;2022-08-01T00:22:18;4.13;;;1.77;;
50543;SDS011;41176;44.032;20.900;2022-08-01T00:24:44;3.75;;;1.42;;
50543;SDS011;41176;44.032;20.900;2022-08-01T00:27:10;3.05;;;1.60;;
50543;SDS011;41176;44.032;20.900;2022-08-01T00:29:35;3.95;;;1.92;;
50543;SDS011;41176;44.032;20.900;2022-08-01T00:32:01;4.28;;;1.80;;
50543;SDS011;41176;44.032;20.900;2022-08-01T00:34:27;2.92;;;1.88;;
50543;SDS011;41176;44.032;20.900;2022-08-01T00:36:52;3.20;;;1.88;;
50543;SDS011;41176;44.032;20.900;2022-08-01T00:39:18;3.55;;;1.58;;
50543;SDS011;41176;44.032;20.900;2022-08-01T00:41:44;2.85;;;1.77;;
50543;SDS011;41176;44.032;20.900;2022-08-01T00:44:10;2.97;;;1.50;;
50543;SDS011;41176;44.032;20.900;2022-08-01T00:46:35;3.00;;;1.30;;
50543;SDS011;41176;44.032;20.900;2022-08-01T00:49:01;3.90;;;1.42;;
50543;SDS011;41176;44.032;20.900;2022-08-01T00:51:27;5.20;;;1.92;;
50543;SDS011;41176;44.032;20.900;2022-08-01T00:53:53;3.88;;;1.55;;
50543;SDS011;41176;44.032;20.900;2022-08-01T00:56:23;4.93;;;1.73;;
50543;SDS011;41176;44.032;20.900;2022-08-01T00:58:50;2.83;;;1.55;;
50543;SDS011;41176;44.032;20.900;2022-08-01T01:01:16;2.33;;;1.58;;
50543;SDS011;41176;44.032;20.900;2022-08-01T01:03:43;2.50;;;1.50;;
50543;SDS011;41176;44.032;20.900;2022-08-01T01:08:46;3.63;;;2.08;;
50543;SDS011;41176;44.032;20.900;2022-08-01T01:11:26;3.10;;;1.50;;
50543;SDS011;41176;44.032;20.900;2022-08-01T01:14:08;2.88;;;1.73;;
50543;SDS011;41176;44.032;20.900;2022-08-01T01:16:41;3.35;;;1.83;;
50543;SDS011;41176;44.032;20.900;2022-08-01T01:19:10;3.08;;;1.90;;
50543;SDS011;41176;44.032;20.900;2022-08-01T01:21:54;2.70;;;1.73;;
50543;SDS011;41176;44.032;20.900;2022-08-01T01:30:43;4.28;;;2.00;;
50543;SDS011;41176;44.032;20.900;2022-08-01T01:33:12;3.10;;;1.98;;
50543;SDS011;41176;44.032;20.900;2022-08-01T01:35:42;3.33;;;1.88;;
50543;SDS011;41176;44.032;20.900;2022-08-01T01:38:14;3.53;;;1.95;;
50543;SDS011;41176;44.032;20.900;2022-08-01T01:40:45;3.83;;;1.63;;
50543;SDS011;41176;44.032;20.900;2022-08-01T01:43:12;3.40;;;1.55;;
50543;SDS011;41176;44.032;20.900;2022-08-01T01:45:41;3.20;;;1.92;;
50543;SDS011;41176;44.032;20.900;2022-08-01T01:48:10;2.83;;;1.85;;
50543;SDS011;41176;44.032;20.900;2022-08-01T01:50:38;3.10;;;1.95;;
50543;SDS011;41176;44.032;20.900;2022-08-01T01:53:06;3.30;;;1.90;;
50543;SDS011;41176;44.032;20.900;2022-08-01T01:55:35;2.97;;;1.95;;
50543;SDS011;41176;44.032;20.900;2022-08-01T01:58:04;4.45;;;2.00;;
50543;SDS011;41176;44.032;20.900;2022-08-01T02:00:32;3.50;;;2.03;;
50543;SDS011;41176;44.032;20.900;2022-08-01T02:03:00;5.30;;;1.80;;
50543;SDS011;41176;44.032;20.900;2022-08-01T02:05:29;3.03;;;1.70;;
50543;SDS011;41176;44.032;20.900;2022-08-01T02:07:55;3.35;;;2.10;;
50543;SDS011;41176;44.032;20.900;2022-08-01T02:10:22;4.63;;;2.50;;
50543;SDS011;41176;44.032;20.900;2022-08-01T02:12:49;5.25;;;2.35;;
50543;SDS011;41176;44.032;20.900;2022-08-01T02:15:15;4.03;;;2.40;;
50543;SDS011;41176;44.032;20.900;2022-08-01T02:17:44;3.28;;;2.00;;
50543;SDS011;41176;44.032;20.900;2022-08-01T02:20:13;4.53;;;2.47;;
50543;SDS011;41176;44.032;20.900;2022-08-01T02:22:42;4.07;;;2.67;;
50543;SDS011;41176;44.032;20.900;2022-08-01T02:30:46;4.60;;;2.30;;
50543;SDS011;41176;44.032;20.900;2022-08-01T02:33:20;3.97;;;2.30;;
50543;SDS011;41176;44.032;20.900;2022-08-01T02:35:50;4.53;;;2.30;;
50543;SDS011;41176;44.032;20.900;2022-08-01T02:38:20;3.13;;;2.03;;
50543;SDS011;41176;44.032;20.900;2022-08-01T02:40:48;3.17;;;2.10;;
50543;SDS011;41176;44.032;20.900;2022-08-01T02:43:18;3.03;;;2.30;;
50543;SDS011;41176;44.032;20.900;2022-08-01T02:45:52;3.38;;;2.10;;
50543;SDS011;41176;44.032;20.900;2022-08-01T02:48:21;3.55;;;2.00;;
50543;SDS011;41176;44.032;20.900;2022-08-01T02:50:51;4.70;;;1.90;;
50543;SDS011;41176;44.032;20.900;2022-08-01T02:53:19;3.75;;;2.15;;
50543;SDS011;41176;44.032;20.900;2022-08-01T02:55:48;3.35;;;2.00;;
50543;SDS011;41176;44.032;20.900;2022-08-01T02:58:16;4.88;;;2.50;;
50543;SDS011;41176;44.032;20.900;2022-08-01T03:00:45;5.00;;;2.03;;
50543;SDS011;41176;44.032;20.900;2022-08-01T03:03:13;4.00;;;2.30;;
50543;SDS011;41176;44.032;20.900;2022-08-01T03:05:41;4.25;;;2.55;;
50543;SDS011;41176;44.032;20.900;2022-08-01T03:08:08;7.60;;;2.47;;
50543;SDS011;41176;44.032;20.900;2022-08-01T03:10:36;3.58;;;1.92;;
50543;SDS011;41176;44.032;20.900;2022-08-01T03:13:05;3.38;;;2.20;;
50543;SDS011;41176;44.032;20.900;2022-08-01T03:15:33;5.40;;;2.42;;
50543;SDS011;41176;44.032;20.900;2022-08-01T03:18:04;3.85;;;2.47;;
50543;SDS011;41176;44.032;20.900;2022-08-01T03:20:32;4.38;;;2.30;;
50543;SDS011;41176;44.032;20.900;2022-08-01T03:23:04;5.15;;;2.45;;
50543;SDS011;41176;44.032;20.900;2022-08-01T03:25:32;5.00;;;2.60;;
50543;SDS011;41176;44.032;20.900;2022-08-01T03:28:01;3.38;;;2.42;;
50543;SDS011;41176;44.032;20.900;2022-08-01T03:30:29;4.22;;;2.30;;
50543;SDS011;41176;44.032;20.900;2022-08-01T03:32:58;4.65;;;2.80;;
50543;SDS011;41176;44.032;20.900;2022-08-01T03:35:29;5.78;;;2.50;;
50543;SDS011;41176;44.032;20.900;2022-08-01T03:40:30;4.18;;;2.38;;
50543;SDS011;41176;44.032;20.900;2022-08-01T03:46:06;6.05;;;2.55;;
50543;SDS011;41176;44.032;20.900;2022-08-01T03:48:36;7.13;;;2.90;;
50543;SDS011;41176;44.032;20.900;2022-08-01T03:51:05;4.93;;;2.80;;
50543;SDS011;41176;44.032;20.900;2022-08-01T03:53:33;3.70;;;2.55;;
50543;SDS011;41176;44.032;20.900;2022-08-01T03:56:00;4.75;;;2.83;;
50543;SDS011;41176;44.032;20.900;2022-08-01T03:58:29;5.25;;;2.60;;
50543;SDS011;41176;44.032;20.900;2022-08-01T04:00:55;5.55;;;2.70;;
50543;SDS011;41176;44.032;20.900;2022-08-01T04:03:22;3.83;;;2.60;;
50543;SDS011;41176;44.032;20.900;2022-08-01T04:05:49;6.25;;;2.63;;
50543;SDS011;41176;44.032;20.900;2022-08-01T04:08:15;3.70;;;2.28;;
50543;SDS011;41176;44.032;20.900;2022-08-01T04:10:41;4.47;;;2.88;;
50543;SDS011;41176;44.032;20.900;2022-08-01T04:13:07;4.72;;;2.92;;
50543;SDS011;41176;44.032;20.900;2022-08-01T04:15:32;4.75;;;3.00;;
50543;SDS011;41176;44.032;20.900;2022-08-01T04:17:58;5.47;;;3.10;;
50543;SDS011;41176;44.032;20.900;2022-08-01T04:20:24;4.95;;;2.67;;
50543;SDS011;41176;44.032;20.900;2022-08-01T04:22:50;6.78;;;3.38;;
50543;SDS011;41176;44.032;20.900;2022-08-01T04:25:17;4.50;;;2.70;;
50543;SDS011;41176;44.032;20.900;2022-08-01T04:27:49;4.63;;;2.80;;
50543;SDS011;41176;44.032;20.900;2022-08-01T04:30:17;5.40;;;2.78;;
50543;SDS011;41176;44.032;20.900;2022-08-01T04:32:50;3.53;;;2.50;;
50543;SDS011;41176;44.032;20.900;2022-08-01T04:35:20;8.00;;;3.38;;
50543;SDS011;41176;44.032;20.900;2022-08-01T04:37:46;4.70;;;2.58;;
50543;SDS011;41176;44.032;20.900;2022-08-01T04:40:16;5.28;;;2.85;;
50543;SDS011;41176;44.032;20.900;2022-08-01T04:42:42;4.00;;;2.63;;
50543;SDS011;41176;44.032;20.900;2022-08-01T04:45:08;4.13;;;2.75;;
50543;SDS011;41176;44.032;20.900;2022-08-01T04:47:35;5.65;;;3.20;;
50543;SDS011;41176;44.032;20.900;2022-08-01T04:50:05;5.18;;;2.63;;
50543;SDS011;41176;44.032;20.900;2022-08-01T04:52:35;7.15;;;3.10;;
50543;SDS011;41176;44.032;20.900;2022-08-01T04:55:03;4.00;;;2.80;;
50543;SDS011;41176;44.032;20.900;2022-08-01T04:57:31;5.28;;;2.72;;
50543;SDS011;41176;44.032;20.900;2022-08-01T04:59:59;4.75;;;2.80;;
50543;SDS011;41176;44.032;20.900;2022-08-01T05:02:27;5.43;;;2.67;;
50543;SDS011;41176;44.032;20.900;2022-08-01T05:04:54;5.60;;;2.88;;
50543;SDS011;41176;44.032;20.900;2022-08-01T05:07:20;5.53;;;3.08;;
50543;SDS011;41176;44.032;20.900;2022-08-01T05:09:46;6.30;;;3.35;;
50543;SDS011;41176;44.032;20.900;2022-08-01T05:12:12;9.55;;;3.83;;
50543;SDS011;41176;44.032;20.900;2022-08-01T05:14:38;6.03;;;3.80;;
50543;SDS011;41176;44.032;20.900;2022-08-01T05:17:05;7.60;;;4.60;;
50543;SDS011;41176;44.032;20.900;2022-08-01T05:19:32;9.88;;;5.00;;
50543;SDS011;41176;44.032;20.900;2022-08-01T05:22:00;5.80;;;3.97;;
50543;SDS011;41176;44.032;20.900;2022-08-01T05:24:27;5.05;;;3.08;;
50543;SDS011;41176;44.032;20.900;2022-08-01T05:26:56;6.53;;;3.35;;
50543;SDS011;41176;44.032;20.900;2022-08-01T05:29:22;3.83;;;2.80;;
50543;SDS011;41176;44.032;20.900;2022-08-01T05:31:48;3.70;;;2.78;;
50543;SDS011;41176;44.032;20.900;2022-08-01T05:34:14;4.72;;;2.67;;
50543;SDS011;41176;44.032;20.900;2022-08-01T05:36:40;4.70;;;3.30;;
50543;SDS011;41176;44.032;20.900;2022-08-01T05:39:06;4.22;;;3.30;;
50543;SDS011;41176;44.032;20.900;2022-08-01T05:41:32;6.45;;;3.58;;
50543;SDS011;41176;44.032;20.900;2022-08-01T05:43:58;6.78;;;4.28;;
50543;SDS011;41176;44.032;20.900;2022-08-01T05:46:23;6.00;;;3.90;;
50543;SDS011;41176;44.032;20.900;2022-08-01T05:48:49;7.75;;;3.80;;
50543;SDS011;41176;44.032;20.900;2022-08-01T05:51:15;5.65;;;3.53;;
50543;SDS011;41176;44.032;20.900;2022-08-01T05:53:42;5.97;;;3.38;;
50543;SDS011;41176;44.032;20.900;2022-08-01T05:56:08;5.68;;;3.22;;
50543;SDS011;41176;44.032;20.900;2022-08-01T05:58:34;6.82;;;3.15;;
50543;SDS011;41176;44.032;20.900;2022-08-01T06:01:00;4.65;;;3.10;;
50543;SDS011;41176;44.032;20.900;2022-08-01T06:03:26;4.35;;;3.00;;
50543;SDS011;41176;44.032;20.900;2022-08-01T06:05:55;6.05;;;3.40;;
50543;SDS011;41176;44.032;20.900;2022-08-01T06:08:22;7.47;;;3.42;;
50543;SDS011;41176;44.032;20.900;2022-08-01T06:10:47;6.07;;;3.38;;
50543;SDS011;41176;44.032;20.900;2022-08-01T06:13:14;5.60;;;3.13;;
50543;SDS011;41176;44.032;20.900;2022-08-01T06:15:39;8.02;;;3.33;;
50543;SDS011;41176;44.032;20.900;2022-08-01T06:18:05;5.68;;;3.40;;
50543;SDS011;41176;44.032;20.900;2022-08-01T06:20:31;5.85;;;3.53;;
50543;SDS011;41176;44.032;20.900;2022-08-01T06:22:57;5.82;;;3.13;;
50543;SDS011;41176;44.032;20.900;2022-08-01T06:25:22;6.95;;;3.33;;
50543;SDS011;41176;44.032;20.900;2022-08-01T06:27:48;6.40;;;3.13;;
50543;SDS011;41176;44.032;20.900;2022-08-01T06:30:14;5.45;;;2.60;;
50543;SDS011;41176;44.032;20.900;2022-08-01T06:32:40;3.65;;;2.05;;
50543;SDS011;41176;44.032;20.900;2022-08-01T06:35:06;5.13;;;1.92;;
50543;SDS011;41176;44.032;20.900;2022-08-01T06:37:32;4.63;;;2.28;;
50543;SDS011;41176;44.032;20.900;2022-08-01T06:40:05;3.38;;;2.17;;
50543;SDS011;41176;44.032;20.900;2022-08-01T06:42:32;3.72;;;2.10;;
50543;SDS011;41176;44.032;20.900;2022-08-01T06:45:05;2.63;;;1.70;;
50543;SDS011;41176;44.032;20.900;2022-08-01T06:47:35;4.25;;;1.80;;
50543;SDS011;41176;44.032;20.900;2022-08-01T06:50:03;3.17;;;1.80;;
50543;SDS011;41176;44.032;20.900;2022-08-01T06:52:29;3.25;;;1.60;;
50543;SDS011;41176;44.032;20.900;2022-08-01T06:54:55;2.85;;;1.60;;
50543;SDS011;41176;44.032;20.900;2022-08-01T06:57:21;3.80;;;1.75;;
50543;SDS011;41176;44.032;20.900;2022-08-01T06:59:49;2.75;;;1.73;;
50543;SDS011;41176;44.032;20.900;2022-08-01T07:02:15;3.95;;;1.65;;
50543;SDS011;41176;44.032;20.900;2022-08-01T07:04:41;2.90;;;1.70;;
50543;SDS011;41176;44.032;20.900;2022-08-01T07:07:09;2.47;;;1.52;;
50543;SDS011;41176;44.032;20.900;2022-08-01T07:09:38;4.15;;;1.73;;
50543;SDS011;41176;44.032;20.900;2022-08-01T07:12:07;2.95;;;2.08;;
50543;SDS011;41176;44.032;20.900;2022-08-01T07:14:36;2.72;;;1.70;;
50543;SDS011;41176;44.032;20.900;2022-08-01T07:20:10;2.70;;;1.95;;
50543;SDS011;41176;44.032;20.900;2022-08-01T07:23:24;3.00;;;1.90;;
50543;SDS011;41176;44.032;20.900;2022-08-01T07:25:50;37.25;;;15.40;;
50543;SDS011;41176;44.032;20.900;2022-08-01T07:28:17;86.43;;;26.85;;
50543;SDS011;41176;44.032;20.900;2022-08-01T07:30:43;38.40;;;13.10;;
50543;SDS011;41176;44.032;20.900;2022-08-01T07:33:12;29.52;;;12.18;;
50543;SDS011;41176;44.032;20.900;2022-08-01T07:35:49;8.52;;;4.32;;
50543;SDS011;41176;44.032;20.900;2022-08-01T07:38:15;10.68;;;4.68;;
50543;SDS011;41176;44.032;20.900;2022-08-01T07:40:42;13.07;;;4.03;;
50543;SDS011;41176;44.032;20.900;2022-08-01T07:43:09;7.03;;;3.40;;
50543;SDS011;41176;44.032;20.900;2022-08-01T07:45:34;3.75;;;2.20;;
50543;SDS011;41176;44.032;20.900;2022-08-01T07:48:04;4.65;;;2.78;;
50543;SDS011;41176;44.032;20.900;2022-08-01T07:50:30;4.28;;;2.67;;
50543;SDS011;41176;44.032;20.900;2022-08-01T07:52:56;5.38;;;2.60;;
50543;SDS011;41176;44.032;20.900;2022-08-01T07:55:22;3.28;;;2.22;;
50543;SDS011;41176;44.032;20.900;2022-08-01T07:57:48;3.55;;;2.42;;
50543;SDS011;41176;44.032;20.900;2022-08-01T08:00:14;4.40;;;2.30;;
50543;SDS011;41176;44.032;20.900;2022-08-01T08:02:40;3.58;;;2.00;;
50543;SDS011;41176;44.032;20.900;2022-08-01T08:05:06;6.50;;;2.63;;
50543;SDS011;41176;44.032;20.900;2022-08-01T08:07:32;3.67;;;2.20;;
50543;SDS011;41176;44.032;20.900;2022-08-01T08:09:58;3.78;;;2.10;;
50543;SDS011;41176;44.032;20.900;2022-08-01T08:12:24;3.30;;;2.17;;
50543;SDS011;41176;44.032;20.900;2022-08-01T08:14:50;3.95;;;2.45;;
50543;SDS011;41176;44.032;20.900;2022-08-01T08:17:16;3.35;;;2.47;;
50543;SDS011;41176;44.032;20.900;2022-08-01T08:19:42;3.10;;;2.30;;
50543;SDS011;41176;44.032;20.900;2022-08-01T08:22:08;3.85;;;2.47;;
50543;SDS011;41176;44.032;20.900;2022-08-01T08:24:34;3.95;;;2.20;;
50543;SDS011;41176;44.032;20.900;2022-08-01T08:27:01;3.38;;;2.38;;
50543;SDS011;41176;44.032;20.900;2022-08-01T08:29:28;3.13;;;2.15;;
50543;SDS011;41176;44.032;20.900;2022-08-01T08:31:56;2.72;;;1.95;;
50543;SDS011;41176;44.032;20.900;2022-08-01T08:34:23;4.03;;;2.17;;
50543;SDS011;41176;44.032;20.900;2022-08-01T08:36:50;3.17;;;2.05;;
50543;SDS011;41176;44.032;20.900;2022-08-01T08:39:16;2.65;;;2.08;;
50543;SDS011;41176;44.032;20.900;2022-08-01T08:41:42;2.72;;;1.83;;
50543;SDS011;41176;44.032;20.900;2022-08-01T08:44:08;3.83;;;2.05;;
50543;SDS011;41176;44.032;20.900;2022-08-01T08:46:45;3.10;;;2.08;;
50543;SDS011;41176;44.032;20.900;2022-08-01T08:49:18;3.42;;;2.00;;
50543;SDS011;41176;44.032;20.900;2022-08-01T08:51:47;5.00;;;2.15;;
50543;SDS011;41176;44.032;20.900;2022-08-01T08:54:14;3.63;;;2.20;;
50543;SDS011;41176;44.032;20.900;2022-08-01T08:56:40;2.70;;;2.08;;
50543;SDS011;41176;44.032;20.900;2022-08-01T08:59:10;3.10;;;2.05;;
50543;SDS011;41176;44.032;20.900;2022-08-01T09:01:38;3.63;;;2.15;;
50543;SDS011;41176;44.032;20.900;2022-08-01T09:04:04;4.38;;;2.40;;
50543;SDS011;41176;44.032;20.900;2022-08-01T09:06:33;3.78;;;2.03;;
50543;SDS011;41176;44.032;20.900;2022-08-01T09:08:59;2.90;;;2.20;;
50543;SDS011;41176;44.032;20.900;2022-08-01T09:11:25;2.80;;;2.05;;
50543;SDS011;41176;44.032;20.900;2022-08-01T09:16:41;4.47;;;2.20;;
50543;SDS011;41176;44.032;20.900;2022-08-01T09:19:18;2.95;;;2.03;;
50543;SDS011;41176;44.032;20.900;2022-08-01T09:22:11;3.22;;;2.20;;
50543;SDS011;41176;44.032;20.900;2022-08-01T09:24:42;3.10;;;2.25;;
50543;SDS011;41176;44.032;20.900;2022-08-01T09:27:36;3.70;;;2.33;;
50543;SDS011;41176;44.032;20.900;2022-08-01T09:30:09;3.80;;;2.35;;
50543;SDS011;41176;44.032;20.900;2022-08-01T09:32:51;3.40;;;2.47;;
50543;SDS011;41176;44.032;20.900;2022-08-01T09:35:43;3.13;;;2.25;;
50543;SDS011;41176;44.032;20.900;2022-08-01T09:38:20;3.47;;;2.30;;
50543;SDS011;41176;44.032;20.900;2022-08-01T09:43:15;3.60;;;2.13;;
50543;SDS011;41176;44.032;20.900;2022-08-01T09:45:41;2.80;;;2.20;;
50543;SDS011;41176;44.032;20.900;2022-08-01T09:48:08;3.35;;;2.13;;
50543;SDS011;41176;44.032;20.900;2022-08-01T09:50:41;2.85;;;2.05;;
50543;SDS011;41176;44.032;20.900;2022-08-01T09:53:08;4.40;;;2.78;;
50543;SDS011;41176;44.032;20.900;2022-08-01T09:55:34;3.75;;;2.40;;
50543;SDS011;41176;44.032;20.900;2022-08-01T09:58:01;2.92;;;2.30;;
50543;SDS011;41176;44.032;20.900;2022-08-01T10:00:29;3.58;;;2.42;;
50543;SDS011;41176;44.032;20.900;2022-08-01T10:02:56;2.95;;;2.33;;
50543;SDS011;41176;44.032;20.900;2022-08-01T10:05:32;3.30;;;2.30;;
50543;SDS011;41176;44.032;20.900;2022-08-01T10:08:00;4.57;;;2.30;;
50543;SDS011;41176;44.032;20.900;2022-08-01T10:10:28;3.38;;;2.28;;
50543;SDS011;41176;44.032;20.900;2022-08-01T10:12:56;4.57;;;2.30;;
50543;SDS011;41176;44.032;20.900;2022-08-01T10:15:23;3.78;;;2.40;;
50543;SDS011;41176;44.032;20.900;2022-08-01T10:18:01;3.63;;;2.60;;
50543;SDS011;41176;44.032;20.900;2022-08-01T10:20:30;4.68;;;2.70;;
50543;SDS011;41176;44.032;20.900;2022-08-01T10:22:58;3.20;;;2.20;;
50543;SDS011;41176;44.032;20.900;2022-08-01T10:25:27;3.72;;;2.42;;
50543;SDS011;41176;44.032;20.900;2022-08-01T10:27:54;3.50;;;2.70;;
50543;SDS011;41176;44.032;20.900;2022-08-01T10:30:22;3.72;;;3.05;;
50543;SDS011;41176;44.032;20.900;2022-08-01T10:32:48;3.45;;;2.58;;
50543;SDS011;41176;44.032;20.900;2022-08-01T10:35:18;4.55;;;2.70;;
50543;SDS011;41176;44.032;20.900;2022-08-01T10:37:45;3.45;;;2.70;;
50543;SDS011;41176;44.032;20.900;2022-08-01T10:40:15;3.50;;;2.65;;
50543;SDS011;41176;44.032;20.900;2022-08-01T10:42:41;4.10;;;2.80;;
50543;SDS011;41176;44.032;20.900;2022-08-01T10:45:13;3.67;;;2.63;;
50543;SDS011;41176;44.032;20.900;2022-08-01T10:47:44;3.13;;;2.65;;
50543;SDS011;41176;44.032;20.900;2022-08-01T10:53:06;3.47;;;2.50;;
50543;SDS011;41176;44.032;20.900;2022-08-01T10:55:48;4.63;;;2.97;;
50543;SDS011;41176;44.032;20.900;2022-08-01T10:58:20;3.55;;;2.80;;
50543;SDS011;41176;44.032;20.900;2022-08-01T11:03:42;3.80;;;3.10;;
50543;SDS011;41176;44.032;20.900;2022-08-01T11:06:16;3.38;;;2.85;;
50543;SDS011;41176;44.032;20.900;2022-08-01T11:08:50;4.10;;;2.80;;
50543;SDS011;41176;44.032;20.900;2022-08-01T11:11:19;5.57;;;2.88;;
50543;SDS011;41176;44.032;20.900;2022-08-01T11:16:37;3.97;;;2.92;;
50543;SDS011;41176;44.032;20.900;2022-08-01T11:19:05;5.65;;;2.88;;
50543;SDS011;41176;44.032;20.900;2022-08-01T11:27:20;4.10;;;3.08;;
50543;SDS011;41176;44.032;20.900;2022-08-01T11:32:47;4.10;;;3.13;;
50543;SDS011;41176;44.032;20.900;2022-08-01T11:35:21;3.40;;;2.80;;
50543;SDS011;41176;44.032;20.900;2022-08-01T11:37:54;4.15;;;3.35;;
50543;SDS011;41176;44.032;20.900;2022-08-01T11:43:41;4.45;;;3.28;;
50543;SDS011;41176;44.032;20.900;2022-08-01T11:49:47;4.63;;;3.42;;
50543;SDS011;41176;44.032;20.900;2022-08-01T11:52:27;6.78;;;3.58;;
50543;SDS011;41176;44.032;20.900;2022-08-01T11:55:19;4.75;;;3.42;;
50543;SDS011;41176;44.032;20.900;2022-08-01T12:01:01;4.32;;;3.60;;
50543;SDS011;41176;44.032;20.900;2022-08-01T12:03:29;4.45;;;3.50;;
50543;SDS011;41176;44.032;20.900;2022-08-01T12:05:57;3.42;;;3.10;;
50543;SDS011;41176;44.032;20.900;2022-08-01T12:11:57;5.07;;;3.38;;
50543;SDS011;41176;44.032;20.900;2022-08-01T12:14:23;3.95;;;3.38;;
50543;SDS011;41176;44.032;20.900;2022-08-01T12:16:50;4.55;;;3.45;;
50543;SDS011;41176;44.032;20.900;2022-08-01T12:19:23;4.57;;;3.85;;
50543;SDS011;41176;44.032;20.900;2022-08-01T12:24:30;4.57;;;3.55;;
50543;SDS011;41176;44.032;20.900;2022-08-01T12:26:56;4.43;;;3.15;;
50543;SDS011;41176;44.032;20.900;2022-08-01T12:29:34;5.63;;;3.63;;
50543;SDS011;41176;44.032;20.900;2022-08-01T12:32:22;5.40;;;3.50;;
50543;SDS011;41176;44.032;20.900;2022-08-01T12:34:54;3.90;;;3.50;;
50543;SDS011;41176;44.032;20.900;2022-08-01T12:37:21;4.20;;;3.55;;
50543;SDS011;41176;44.032;20.900;2022-08-01T12:39:47;5.63;;;3.70;;
50543;SDS011;41176;44.032;20.900;2022-08-01T12:42:13;4.78;;;3.45;;
50543;SDS011;41176;44.032;20.900;2022-08-01T12:44:40;4.40;;;3.60;;
50543;SDS011;41176;44.032;20.900;2022-08-01T12:47:09;3.85;;;3.25;;
50543;SDS011;41176;44.032;20.900;2022-08-01T12:49:45;9.80;;;3.80;;
50543;SDS011;41176;44.032;20.900;2022-08-01T12:52:13;3.83;;;3.03;;
50543;SDS011;41176;44.032;20.900;2022-08-01T12:55:22;3.70;;;2.92;;
50543;SDS011;41176;44.032;20.900;2022-08-01T12:57:30;4.25;;;3.38;;
50543;SDS011;41176;44.032;20.900;2022-08-01T13:00:06;4.00;;;3.55;;
50543;SDS011;41176;44.032;20.900;2022-08-01T13:02:43;4.30;;;2.88;;
50543;SDS011;41176;44.032;20.900;2022-08-01T13:05:10;3.60;;;2.85;;
50543;SDS011;41176;44.032;20.900;2022-08-01T13:07:55;3.83;;;2.97;;
50543;SDS011;41176;44.032;20.900;2022-08-01T13:10:30;3.78;;;3.10;;
50543;SDS011;41176;44.032;20.900;2022-08-01T13:15:25;4.05;;;3.35;;
50543;SDS011;41176;44.032;20.900;2022-08-01T13:21:07;3.40;;;2.80;;
50543;SDS011;41176;44.032;20.900;2022-08-01T13:23:35;4.75;;;3.13;;
50543;SDS011;41176;44.032;20.900;2022-08-01T13:26:07;4.78;;;2.90;;
50543;SDS011;41176;44.032;20.900;2022-08-01T13:28:33;3.83;;;3.03;;
50543;SDS011;41176;44.032;20.900;2022-08-01T13:31:06;4.28;;;2.70;;
50543;SDS011;41176;44.032;20.900;2022-08-01T13:33:45;3.58;;;3.03;;
50543;SDS011;41176;44.032;20.900;2022-08-01T13:36:12;3.92;;;2.75;;
50543;SDS011;41176;44.032;20.900;2022-08-01T13:38:40;4.20;;;3.00;;
50543;SDS011;41176;44.032;20.900;2022-08-01T13:41:25;4.85;;;3.47;;
50543;SDS011;41176;44.032;20.900;2022-08-01T13:43:57;3.78;;;2.90;;
50543;SDS011;41176;44.032;20.900;2022-08-01T13:46:33;5.13;;;2.63;;
50543;SDS011;41176;44.032;20.900;2022-08-01T13:49:04;3.08;;;2.60;;
50543;SDS011;41176;44.032;20.900;2022-08-01T13:51:35;3.33;;;2.45;;
50543;SDS011;41176;44.032;20.900;2022-08-01T13:54:02;3.63;;;2.58;;
50543;SDS011;41176;44.032;20.900;2022-08-01T13:56:28;4.63;;;2.55;;
50543;SDS011;41176;44.032;20.900;2022-08-01T13:58:54;3.17;;;2.67;;
50543;SDS011;41176;44.032;20.900;2022-08-01T14:01:23;3.30;;;2.38;;
50543;SDS011;41176;44.032;20.900;2022-08-01T14:04:13;3.28;;;2.38;;
50543;SDS011;41176;44.032;20.900;2022-08-01T14:06:51;3.65;;;2.55;;
50543;SDS011;41176;44.032;20.900;2022-08-01T14:17:32;4.95;;;2.63;;
50543;SDS011;41176;44.032;20.900;2022-08-01T14:19:58;3.78;;;2.40;;
50543;SDS011;41176;44.032;20.900;2022-08-01T14:23:01;4.20;;;2.40;;
50543;SDS011;41176;44.032;20.900;2022-08-01T14:25:30;3.78;;;2.72;;
50543;SDS011;41176;44.032;20.900;2022-08-01T14:28:41;4.10;;;2.47;;
50543;SDS011;41176;44.032;20.900;2022-08-01T14:31:33;3.15;;;2.22;;
50543;SDS011;41176;44.032;20.900;2022-08-01T14:37:52;3.92;;;2.30;;
50543;SDS011;41176;44.032;20.900;2022-08-01T14:40:18;2.90;;;2.22;;
50543;SDS011;41176;44.032;20.900;2022-08-01T14:42:47;3.55;;;2.05;;
50543;SDS011;41176;44.032;20.900;2022-08-01T14:48:27;3.13;;;2.17;;
50543;SDS011;41176;44.032;20.900;2022-08-01T14:57:46;3.40;;;2.08;;
50543;SDS011;41176;44.032;20.900;2022-08-01T15:07:23;3.30;;;2.10;;
50543;SDS011;41176;44.032;20.900;2022-08-01T16:13:17;4.32;;;2.20;;
50543;SDS011;41176;44.032;20.900;2022-08-01T16:29:19;2.88;;;1.90;;
50543;SDS011;41176;44.032;20.900;2022-08-01T16:31:45;3.80;;;2.22;;
50543;SDS011;41176;44.032;20.900;2022-08-01T16:38:03;2.75;;;2.10;;
50543;SDS011;41176;44.032;20.900;2022-08-01T16:46:48;4.20;;;2.28;;
50543;SDS011;41176;44.032;20.900;2022-08-01T16:49:14;4.32;;;2.38;;
50543;SDS011;41176;44.032;20.900;2022-08-01T16:54:29;3.85;;;2.20;;
50543;SDS011;41176;44.032;20.900;2022-08-01T16:56:55;3.15;;;2.13;;
50543;SDS011;41176;44.032;20.900;2022-08-01T16:59:23;3.13;;;2.03;;
50543;SDS011;41176;44.032;20.900;2022-08-01T17:01:49;4.28;;;2.17;;
50543;SDS011;41176;44.032;20.900;2022-08-01T17:04:15;3.33;;;2.40;;
50543;SDS011;41176;44.032;20.900;2022-08-01T17:06:51;6.38;;;3.08;;
50543;SDS011;41176;44.032;20.900;2022-08-01T17:09:18;3.28;;;2.30;;
50543;SDS011;41176;44.032;20.900;2022-08-01T17:11:44;4.90;;;2.40;;
50543;SDS011;41176;44.032;20.900;2022-08-01T17:14:10;3.55;;;2.60;;
50543;SDS011;41176;44.032;20.900;2022-08-01T17:16:36;4.32;;;2.33;;
50543;SDS011;41176;44.032;20.900;2022-08-01T17:19:03;3.33;;;2.38;;
50543;SDS011;41176;44.032;20.900;2022-08-01T17:21:29;3.80;;;2.63;;
50543;SDS011;41176;44.032;20.900;2022-08-01T17:23:57;4.53;;;2.70;;
50543;SDS011;41176;44.032;20.900;2022-08-01T17:26:24;5.80;;;2.75;;
50543;SDS011;41176;44.032;20.900;2022-08-01T17:28:50;4.55;;;2.67;;
50543;SDS011;41176;44.032;20.900;2022-08-01T17:31:17;6.72;;;2.80;;
50543;SDS011;41176;44.032;20.900;2022-08-01T17:36:35;7.25;;;3.47;;
50543;SDS011;41176;44.032;20.900;2022-08-01T17:39:02;5.18;;;3.60;;
50543;SDS011;41176;44.032;20.900;2022-08-01T17:41:30;4.75;;;3.10;;
50543;SDS011;41176;44.032;20.900;2022-08-01T17:43:56;5.63;;;3.28;;
50543;SDS011;41176;44.032;20.900;2022-08-01T17:46:23;6.57;;;3.40;;
50543;SDS011;41176;44.032;20.900;2022-08-01T17:48:50;7.72;;;3.50;;
50543;SDS011;41176;44.032;20.900;2022-08-01T17:51:15;4.72;;;3.33;;
50543;SDS011;41176;44.032;20.900;2022-08-01T17:53:42;5.00;;;3.17;;